Аэропорт: Актобе. Актобе

ICAO: UATT

METAR:
2018/09/23 11:00
UATT 231100Z 32004MPS 290V360 9999 SCT048 23/10 Q1019 R31/CLRD70 NOSIG RMK QFE744/0993
METAR:
2018/09/23 12:18
TAF TAF UATT 231100Z 2312/2412 32005MPS 5000 FU BKN020 TX23/2411Z TN09/2401Z 
      TEMPO 2318/2406 3000 BR SCT010 
     FM240600 19005MPS 9999 BKN040 
      TEMPO 2406/2412 17010MPS